sensor_id;sensor_type;location;lat;lon;timestamp;P1;durP1;ratioP1;P2;durP2;ratioP2
48534;SDS011;34323;52.022;5.686;2023-04-19T00:00:40;9.07;;;6.32;;
48534;SDS011;34323;52.022;5.686;2023-04-19T00:03:06;12.85;;;7.07;;
48534;SDS011;34323;52.022;5.686;2023-04-19T00:05:32;10.55;;;7.57;;
48534;SDS011;34323;52.022;5.686;2023-04-19T00:07:58;9.43;;;6.60;;
48534;SDS011;34323;52.022;5.686;2023-04-19T00:10:24;14.43;;;8.43;;
48534;SDS011;34323;52.022;5.686;2023-04-19T00:12:50;14.25;;;7.05;;
48534;SDS011;34323;52.022;5.686;2023-04-19T00:15:16;10.82;;;7.38;;
48534;SDS011;34323;52.022;5.686;2023-04-19T00:17:41;14.10;;;8.10;;
48534;SDS011;34323;52.022;5.686;2023-04-19T00:20:07;15.35;;;7.28;;
48534;SDS011;34323;52.022;5.686;2023-04-19T00:22:34;11.32;;;7.35;;
48534;SDS011;34323;52.022;5.686;2023-04-19T00:25:00;14.05;;;7.13;;
48534;SDS011;34323;52.022;5.686;2023-04-19T00:27:26;13.05;;;7.25;;
48534;SDS011;34323;52.022;5.686;2023-04-19T00:29:51;11.75;;;7.35;;
48534;SDS011;34323;52.022;5.686;2023-04-19T00:32:17;12.70;;;7.68;;
48534;SDS011;34323;52.022;5.686;2023-04-19T00:34:43;14.02;;;9.40;;
48534;SDS011;34323;52.022;5.686;2023-04-19T00:37:08;13.85;;;7.35;;
48534;SDS011;34323;52.022;5.686;2023-04-19T00:39:34;12.07;;;7.50;;
48534;SDS011;34323;52.022;5.686;2023-04-19T00:42:01;16.40;;;8.63;;
48534;SDS011;34323;52.022;5.686;2023-04-19T00:44:26;12.80;;;7.55;;
48534;SDS011;34323;52.022;5.686;2023-04-19T00:46:52;12.85;;;7.90;;
48534;SDS011;34323;52.022;5.686;2023-04-19T00:49:19;15.45;;;7.70;;
48534;SDS011;34323;52.022;5.686;2023-04-19T00:51:47;15.38;;;8.05;;
48534;SDS011;34323;52.022;5.686;2023-04-19T00:54:14;13.68;;;7.97;;
48534;SDS011;34323;52.022;5.686;2023-04-19T00:56:40;10.77;;;7.60;;
48534;SDS011;34323;52.022;5.686;2023-04-19T00:59:06;11.10;;;7.43;;
48534;SDS011;34323;52.022;5.686;2023-04-19T01:01:32;12.48;;;7.68;;
48534;SDS011;34323;52.022;5.686;2023-04-19T01:03:58;11.00;;;7.85;;
48534;SDS011;34323;52.022;5.686;2023-04-19T01:06:25;13.35;;;8.65;;
48534;SDS011;34323;52.022;5.686;2023-04-19T01:08:52;11.40;;;7.13;;
48534;SDS011;34323;52.022;5.686;2023-04-19T01:11:18;11.70;;;8.07;;
48534;SDS011;34323;52.022;5.686;2023-04-19T01:13:43;15.18;;;7.68;;
48534;SDS011;34323;52.022;5.686;2023-04-19T01:16:09;11.35;;;7.63;;
48534;SDS011;34323;52.022;5.686;2023-04-19T01:18:35;10.98;;;7.32;;
48534;SDS011;34323;52.022;5.686;2023-04-19T01:21:02;11.70;;;7.75;;
48534;SDS011;34323;52.022;5.686;2023-04-19T01:23:28;13.05;;;8.38;;
48534;SDS011;34323;52.022;5.686;2023-04-19T01:25:54;14.68;;;9.43;;
48534;SDS011;34323;52.022;5.686;2023-04-19T01:28:20;12.15;;;8.35;;
48534;SDS011;34323;52.022;5.686;2023-04-19T01:30:45;15.20;;;8.85;;
48534;SDS011;34323;52.022;5.686;2023-04-19T01:33:11;11.55;;;7.35;;
48534;SDS011;34323;52.022;5.686;2023-04-19T01:35:36;13.15;;;8.45;;
48534;SDS011;34323;52.022;5.686;2023-04-19T01:38:02;12.13;;;8.02;;
48534;SDS011;34323;52.022;5.686;2023-04-19T01:40:29;12.00;;;8.27;;
48534;SDS011;34323;52.022;5.686;2023-04-19T01:42:54;14.52;;;8.40;;
48534;SDS011;34323;52.022;5.686;2023-04-19T01:45:20;18.10;;;8.95;;
48534;SDS011;34323;52.022;5.686;2023-04-19T01:47:46;13.88;;;9.32;;
48534;SDS011;34323;52.022;5.686;2023-04-19T01:50:11;12.90;;;8.32;;
48534;SDS011;34323;52.022;5.686;2023-04-19T01:52:37;16.90;;;9.15;;
48534;SDS011;34323;52.022;5.686;2023-04-19T01:55:02;15.73;;;8.20;;
48534;SDS011;34323;52.022;5.686;2023-04-19T01:57:28;13.80;;;8.60;;
48534;SDS011;34323;52.022;5.686;2023-04-19T01:59:54;13.48;;;7.97;;
48534;SDS011;34323;52.022;5.686;2023-04-19T02:02:20;12.73;;;8.73;;
48534;SDS011;34323;52.022;5.686;2023-04-19T02:04:45;13.93;;;8.40;;
48534;SDS011;34323;52.022;5.686;2023-04-19T02:07:11;13.27;;;7.90;;
48534;SDS011;34323;52.022;5.686;2023-04-19T02:09:37;13.23;;;9.32;;
48534;SDS011;34323;52.022;5.686;2023-04-19T02:12:03;12.45;;;8.43;;
48534;SDS011;34323;52.022;5.686;2023-04-19T02:14:29;14.02;;;8.55;;
48534;SDS011;34323;52.022;5.686;2023-04-19T02:16:54;12.48;;;8.38;;
48534;SDS011;34323;52.022;5.686;2023-04-19T02:19:20;15.75;;;8.48;;
48534;SDS011;34323;52.022;5.686;2023-04-19T02:21:46;12.50;;;8.00;;
48534;SDS011;34323;52.022;5.686;2023-04-19T02:24:11;14.63;;;8.90;;
48534;SDS011;34323;52.022;5.686;2023-04-19T02:26:37;11.20;;;8.00;;
48534;SDS011;34323;52.022;5.686;2023-04-19T02:29:03;16.73;;;8.20;;
48534;SDS011;34323;52.022;5.686;2023-04-19T02:31:29;16.13;;;8.82;;
48534;SDS011;34323;52.022;5.686;2023-04-19T02:33:54;12.18;;;8.85;;
48534;SDS011;34323;52.022;5.686;2023-04-19T02:36:20;11.88;;;7.82;;
48534;SDS011;34323;52.022;5.686;2023-04-19T02:38:45;12.88;;;8.35;;
48534;SDS011;34323;52.022;5.686;2023-04-19T02:41:11;12.68;;;7.55;;
48534;SDS011;34323;52.022;5.686;2023-04-19T02:43:36;15.73;;;8.88;;
48534;SDS011;34323;52.022;5.686;2023-04-19T02:46:02;12.90;;;7.65;;
48534;SDS011;34323;52.022;5.686;2023-04-19T02:48:27;12.90;;;8.25;;
48534;SDS011;34323;52.022;5.686;2023-04-19T02:50:53;13.40;;;8.32;;
48534;SDS011;34323;52.022;5.686;2023-04-19T02:53:19;13.55;;;8.70;;
48534;SDS011;34323;52.022;5.686;2023-04-19T02:55:44;14.57;;;9.13;;
48534;SDS011;34323;52.022;5.686;2023-04-19T02:58:10;13.75;;;8.95;;
48534;SDS011;34323;52.022;5.686;2023-04-19T03:00:35;17.33;;;8.80;;
48534;SDS011;34323;52.022;5.686;2023-04-19T03:03:01;15.40;;;8.25;;
48534;SDS011;34323;52.022;5.686;2023-04-19T03:05:29;12.10;;;8.40;;
48534;SDS011;34323;52.022;5.686;2023-04-19T03:07:55;14.95;;;8.80;;
48534;SDS011;34323;52.022;5.686;2023-04-19T03:10:20;17.92;;;9.30;;
48534;SDS011;34323;52.022;5.686;2023-04-19T03:12:46;13.68;;;8.65;;
48534;SDS011;34323;52.022;5.686;2023-04-19T03:15:11;15.23;;;8.20;;
48534;SDS011;34323;52.022;5.686;2023-04-19T03:17:37;17.25;;;8.52;;
48534;SDS011;34323;52.022;5.686;2023-04-19T03:20:03;19.83;;;8.82;;
48534;SDS011;34323;52.022;5.686;2023-04-19T03:22:33;11.68;;;7.68;;
48534;SDS011;34323;52.022;5.686;2023-04-19T03:24:59;11.88;;;7.30;;
48534;SDS011;34323;52.022;5.686;2023-04-19T03:27:24;13.15;;;7.95;;
48534;SDS011;34323;52.022;5.686;2023-04-19T03:29:50;15.23;;;8.85;;
48534;SDS011;34323;52.022;5.686;2023-04-19T03:32:16;17.30;;;8.07;;
48534;SDS011;34323;52.022;5.686;2023-04-19T03:34:42;15.20;;;8.80;;
48534;SDS011;34323;52.022;5.686;2023-04-19T03:37:07;11.70;;;7.28;;
48534;SDS011;34323;52.022;5.686;2023-04-19T03:39:33;12.20;;;7.47;;
48534;SDS011;34323;52.022;5.686;2023-04-19T03:41:59;12.95;;;6.97;;
48534;SDS011;34323;52.022;5.686;2023-04-19T03:44:25;11.63;;;7.35;;
48534;SDS011;34323;52.022;5.686;2023-04-19T03:46:51;13.23;;;7.35;;
48534;SDS011;34323;52.022;5.686;2023-04-19T03:49:16;9.10;;;6.63;;
48534;SDS011;34323;52.022;5.686;2023-04-19T03:51:42;12.63;;;7.25;;
48534;SDS011;34323;52.022;5.686;2023-04-19T03:54:08;13.20;;;7.00;;
48534;SDS011;34323;52.022;5.686;2023-04-19T03:56:33;16.10;;;7.40;;
48534;SDS011;34323;52.022;5.686;2023-04-19T03:58:59;14.52;;;7.07;;
48534;SDS011;34323;52.022;5.686;2023-04-19T04:01:25;9.82;;;6.60;;
48534;SDS011;34323;52.022;5.686;2023-04-19T04:03:50;10.45;;;6.35;;
48534;SDS011;34323;52.022;5.686;2023-04-19T04:06:16;9.20;;;5.85;;
48534;SDS011;34323;52.022;5.686;2023-04-19T04:08:41;9.98;;;6.38;;
48534;SDS011;34323;52.022;5.686;2023-04-19T04:11:07;9.75;;;6.32;;
48534;SDS011;34323;52.022;5.686;2023-04-19T04:13:33;9.63;;;6.55;;
48534;SDS011;34323;52.022;5.686;2023-04-19T04:15:58;13.70;;;6.70;;
48534;SDS011;34323;52.022;5.686;2023-04-19T04:18:24;10.43;;;6.45;;
48534;SDS011;34323;52.022;5.686;2023-04-19T04:20:52;9.32;;;5.60;;
48534;SDS011;34323;52.022;5.686;2023-04-19T04:23:18;10.73;;;6.10;;
48534;SDS011;34323;52.022;5.686;2023-04-19T04:25:45;10.68;;;6.53;;
48534;SDS011;34323;52.022;5.686;2023-04-19T04:28:11;11.07;;;6.10;;
48534;SDS011;34323;52.022;5.686;2023-04-19T04:30:37;13.30;;;6.03;;
48534;SDS011;34323;52.022;5.686;2023-04-19T04:33:04;11.57;;;6.45;;
48534;SDS011;34323;52.022;5.686;2023-04-19T04:35:30;8.30;;;5.70;;
48534;SDS011;34323;52.022;5.686;2023-04-19T04:37:55;9.60;;;6.38;;
48534;SDS011;34323;52.022;5.686;2023-04-19T04:40:21;10.50;;;6.30;;
48534;SDS011;34323;52.022;5.686;2023-04-19T04:42:47;9.57;;;5.80;;
48534;SDS011;34323;52.022;5.686;2023-04-19T04:45:13;12.50;;;6.55;;
48534;SDS011;34323;52.022;5.686;2023-04-19T04:47:42;10.60;;;6.00;;
48534;SDS011;34323;52.022;5.686;2023-04-19T04:50:10;12.63;;;5.40;;
48534;SDS011;34323;52.022;5.686;2023-04-19T04:52:35;10.05;;;5.82;;
48534;SDS011;34323;52.022;5.686;2023-04-19T04:55:01;13.18;;;6.32;;
48534;SDS011;34323;52.022;5.686;2023-04-19T04:57:26;7.40;;;5.10;;
48534;SDS011;34323;52.022;5.686;2023-04-19T04:59:52;10.48;;;6.05;;
48534;SDS011;34323;52.022;5.686;2023-04-19T05:02:20;9.95;;;5.40;;
48534;SDS011;34323;52.022;5.686;2023-04-19T05:04:47;11.57;;;6.15;;
48534;SDS011;34323;52.022;5.686;2023-04-19T05:07:13;11.25;;;6.22;;
48534;SDS011;34323;52.022;5.686;2023-04-19T05:09:39;11.93;;;6.07;;
48534;SDS011;34323;52.022;5.686;2023-04-19T05:12:04;8.02;;;5.55;;
48534;SDS011;34323;52.022;5.686;2023-04-19T05:14:30;9.73;;;5.38;;
48534;SDS011;34323;52.022;5.686;2023-04-19T05:16:56;9.50;;;5.78;;
48534;SDS011;34323;52.022;5.686;2023-04-19T05:19:21;12.15;;;6.00;;
48534;SDS011;34323;52.022;5.686;2023-04-19T05:21:47;13.23;;;7.05;;
48534;SDS011;34323;52.022;5.686;2023-04-19T05:24:12;10.50;;;6.18;;
48534;SDS011;34323;52.022;5.686;2023-04-19T05:26:38;10.23;;;6.32;;
48534;SDS011;34323;52.022;5.686;2023-04-19T05:29:03;10.73;;;6.82;;
48534;SDS011;34323;52.022;5.686;2023-04-19T05:31:29;10.93;;;6.22;;
48534;SDS011;34323;52.022;5.686;2023-04-19T05:33:55;11.55;;;7.07;;
48534;SDS011;34323;52.022;5.686;2023-04-19T05:36:21;11.13;;;6.60;;
48534;SDS011;34323;52.022;5.686;2023-04-19T05:38:46;11.23;;;6.20;;
48534;SDS011;34323;52.022;5.686;2023-04-19T05:41:12;10.40;;;6.88;;
48534;SDS011;34323;52.022;5.686;2023-04-19T05:43:37;12.18;;;6.13;;
48534;SDS011;34323;52.022;5.686;2023-04-19T05:46:03;13.50;;;6.28;;
48534;SDS011;34323;52.022;5.686;2023-04-19T05:48:29;13.20;;;6.07;;
48534;SDS011;34323;52.022;5.686;2023-04-19T05:50:54;10.63;;;5.78;;
48534;SDS011;34323;52.022;5.686;2023-04-19T05:53:21;10.48;;;6.28;;
48534;SDS011;34323;52.022;5.686;2023-04-19T05:55:47;10.30;;;6.45;;
48534;SDS011;34323;52.022;5.686;2023-04-19T05:58:14;10.25;;;5.82;;
48534;SDS011;34323;52.022;5.686;2023-04-19T06:00:40;12.07;;;5.88;;
48534;SDS011;34323;52.022;5.686;2023-04-19T06:03:06;10.55;;;6.07;;
48534;SDS011;34323;52.022;5.686;2023-04-19T06:05:32;13.63;;;5.38;;
48534;SDS011;34323;52.022;5.686;2023-04-19T06:07:58;9.52;;;5.35;;
48534;SDS011;34323;52.022;5.686;2023-04-19T06:10:23;7.85;;;5.25;;
48534;SDS011;34323;52.022;5.686;2023-04-19T06:12:49;6.75;;;5.07;;
48534;SDS011;34323;52.022;5.686;2023-04-19T06:15:14;10.35;;;5.28;;
48534;SDS011;34323;52.022;5.686;2023-04-19T06:17:40;8.60;;;5.25;;
48534;SDS011;34323;52.022;5.686;2023-04-19T06:20:06;10.55;;;5.38;;
48534;SDS011;34323;52.022;5.686;2023-04-19T06:22:32;9.25;;;4.93;;
48534;SDS011;34323;52.022;5.686;2023-04-19T06:24:57;9.95;;;5.07;;
48534;SDS011;34323;52.022;5.686;2023-04-19T06:27:23;11.35;;;4.75;;
48534;SDS011;34323;52.022;5.686;2023-04-19T06:29:49;8.07;;;4.53;;
48534;SDS011;34323;52.022;5.686;2023-04-19T06:32:14;8.45;;;4.97;;
48534;SDS011;34323;52.022;5.686;2023-04-19T06:34:40;7.28;;;4.88;;
48534;SDS011;34323;52.022;5.686;2023-04-19T06:37:05;10.57;;;5.00;;
48534;SDS011;34323;52.022;5.686;2023-04-19T06:39:31;12.82;;;5.22;;
48534;SDS011;34323;52.022;5.686;2023-04-19T06:41:57;8.32;;;4.57;;
48534;SDS011;34323;52.022;5.686;2023-04-19T06:44:22;7.00;;;3.63;;
48534;SDS011;34323;52.022;5.686;2023-04-19T06:46:48;11.40;;;4.32;;
48534;SDS011;34323;52.022;5.686;2023-04-19T06:49:13;7.72;;;4.15;;
48534;SDS011;34323;52.022;5.686;2023-04-19T06:51:39;10.43;;;4.32;;
48534;SDS011;34323;52.022;5.686;2023-04-19T06:54:05;6.38;;;3.75;;
48534;SDS011;34323;52.022;5.686;2023-04-19T06:56:38;6.57;;;3.70;;
48534;SDS011;34323;52.022;5.686;2023-04-19T06:59:10;8.57;;;3.67;;
48534;SDS011;34323;52.022;5.686;2023-04-19T07:01:36;7.60;;;4.15;;
48534;SDS011;34323;52.022;5.686;2023-04-19T07:04:02;9.45;;;4.22;;
48534;SDS011;34323;52.022;5.686;2023-04-19T07:06:28;4.85;;;2.83;;
48534;SDS011;34323;52.022;5.686;2023-04-19T07:08:54;9.27;;;3.45;;
48534;SDS011;34323;52.022;5.686;2023-04-19T07:11:19;7.20;;;2.83;;
48534;SDS011;34323;52.022;5.686;2023-04-19T07:13:45;4.97;;;2.88;;
48534;SDS011;34323;52.022;5.686;2023-04-19T07:16:11;6.78;;;2.92;;
48534;SDS011;34323;52.022;5.686;2023-04-19T07:18:38;6.57;;;3.13;;
48534;SDS011;34323;52.022;5.686;2023-04-19T07:21:04;7.43;;;3.25;;
48534;SDS011;34323;52.022;5.686;2023-04-19T07:23:29;6.28;;;3.20;;
48534;SDS011;34323;52.022;5.686;2023-04-19T07:25:55;4.43;;;2.80;;
48534;SDS011;34323;52.022;5.686;2023-04-19T07:28:21;6.82;;;2.80;;
48534;SDS011;34323;52.022;5.686;2023-04-19T07:30:46;7.82;;;2.75;;
48534;SDS011;34323;52.022;5.686;2023-04-19T07:33:12;9.43;;;2.75;;
48534;SDS011;34323;52.022;5.686;2023-04-19T07:35:38;8.93;;;3.95;;
48534;SDS011;34323;52.022;5.686;2023-04-19T07:38:04;8.70;;;2.58;;
48534;SDS011;34323;52.022;5.686;2023-04-19T07:40:29;5.88;;;2.95;;
48534;SDS011;34323;52.022;5.686;2023-04-19T07:42:55;4.20;;;2.50;;
48534;SDS011;34323;52.022;5.686;2023-04-19T07:45:21;9.18;;;3.10;;
48534;SDS011;34323;52.022;5.686;2023-04-19T07:47:46;6.38;;;2.60;;
48534;SDS011;34323;52.022;5.686;2023-04-19T07:50:12;6.35;;;3.08;;
48534;SDS011;34323;52.022;5.686;2023-04-19T07:52:37;4.75;;;2.90;;
48534;SDS011;34323;52.022;5.686;2023-04-19T07:55:03;7.68;;;3.00;;
48534;SDS011;34323;52.022;5.686;2023-04-19T07:57:29;4.18;;;2.50;;
48534;SDS011;34323;52.022;5.686;2023-04-19T07:59:55;4.40;;;2.47;;
48534;SDS011;34323;52.022;5.686;2023-04-19T08:02:24;5.57;;;2.80;;
48534;SDS011;34323;52.022;5.686;2023-04-19T08:04:51;4.25;;;2.50;;
48534;SDS011;34323;52.022;5.686;2023-04-19T08:07:17;5.82;;;2.65;;
48534;SDS011;34323;52.022;5.686;2023-04-19T08:09:43;4.15;;;2.20;;
48534;SDS011;34323;52.022;5.686;2023-04-19T08:12:08;6.90;;;2.42;;
48534;SDS011;34323;52.022;5.686;2023-04-19T08:14:34;4.68;;;2.20;;
48534;SDS011;34323;52.022;5.686;2023-04-19T08:16:59;4.70;;;2.17;;
48534;SDS011;34323;52.022;5.686;2023-04-19T08:19:25;5.13;;;2.30;;
48534;SDS011;34323;52.022;5.686;2023-04-19T08:21:51;4.63;;;2.30;;
48534;SDS011;34323;52.022;5.686;2023-04-19T08:24:16;5.05;;;2.35;;
48534;SDS011;34323;52.022;5.686;2023-04-19T08:26:42;5.55;;;2.33;;
48534;SDS011;34323;52.022;5.686;2023-04-19T08:29:07;7.85;;;2.50;;
48534;SDS011;34323;52.022;5.686;2023-04-19T08:31:33;3.10;;;1.85;;
48534;SDS011;34323;52.022;5.686;2023-04-19T08:33:59;6.15;;;2.13;;
48534;SDS011;34323;52.022;5.686;2023-04-19T08:36:24;6.18;;;2.10;;
48534;SDS011;34323;52.022;5.686;2023-04-19T08:38:51;4.18;;;1.95;;
48534;SDS011;34323;52.022;5.686;2023-04-19T08:41:17;3.50;;;1.88;;
48534;SDS011;34323;52.022;5.686;2023-04-19T08:43:44;4.57;;;2.10;;
48534;SDS011;34323;52.022;5.686;2023-04-19T08:46:15;2.28;;;1.75;;
48534;SDS011;34323;52.022;5.686;2023-04-19T08:48:41;5.18;;;1.48;;
48534;SDS011;34323;52.022;5.686;2023-04-19T08:51:10;3.38;;;1.42;;
48534;SDS011;34323;52.022;5.686;2023-04-19T08:53:37;1.83;;;1.13;;
48534;SDS011;34323;52.022;5.686;2023-04-19T08:56:04;5.82;;;1.60;;
48534;SDS011;34323;52.022;5.686;2023-04-19T08:58:32;7.75;;;1.60;;
48534;SDS011;34323;52.022;5.686;2023-04-19T09:00:57;3.00;;;1.20;;
48534;SDS011;34323;52.022;5.686;2023-04-19T09:03:23;2.83;;;1.48;;
48534;SDS011;34323;52.022;5.686;2023-04-19T09:05:49;4.22;;;0.98;;
48534;SDS011;34323;52.022;5.686;2023-04-19T09:08:28;1.33;;;0.82;;
48534;SDS011;34323;52.022;5.686;2023-04-19T09:10:56;1.45;;;1.08;;
48534;SDS011;34323;52.022;5.686;2023-04-19T09:13:23;2.03;;;1.23;;
48534;SDS011;34323;52.022;5.686;2023-04-19T09:15:49;1.88;;;1.08;;
48534;SDS011;34323;52.022;5.686;2023-04-19T09:18:16;1.67;;;1.10;;
48534;SDS011;34323;52.022;5.686;2023-04-19T09:20:43;2.28;;;1.20;;
48534;SDS011;34323;52.022;5.686;2023-04-19T09:23:13;1.83;;;0.95;;
48534;SDS011;34323;52.022;5.686;2023-04-19T09:25:54;1.38;;;0.95;;
48534;SDS011;34323;52.022;5.686;2023-04-19T09:28:22;1.88;;;1.02;;
48534;SDS011;34323;52.022;5.686;2023-04-19T09:30:48;1.60;;;1.00;;
48534;SDS011;34323;52.022;5.686;2023-04-19T09:33:34;2.17;;;1.30;;
48534;SDS011;34323;52.022;5.686;2023-04-19T09:36:03;2.63;;;1.17;;
48534;SDS011;34323;52.022;5.686;2023-04-19T09:38:29;3.05;;;1.05;;
48534;SDS011;34323;52.022;5.686;2023-04-19T09:41:04;5.70;;;1.50;;
48534;SDS011;34323;52.022;5.686;2023-04-19T09:43:31;2.75;;;1.40;;
48534;SDS011;34323;52.022;5.686;2023-04-19T09:45:57;2.67;;;1.30;;
48534;SDS011;34323;52.022;5.686;2023-04-19T09:48:23;3.25;;;1.60;;
48534;SDS011;34323;52.022;5.686;2023-04-19T09:50:55;2.38;;;1.20;;
48534;SDS011;34323;52.022;5.686;2023-04-19T09:53:26;4.00;;;1.20;;
48534;SDS011;34323;52.022;5.686;2023-04-19T09:55:53;1.95;;;1.23;;
48534;SDS011;34323;52.022;5.686;2023-04-19T09:58:19;1.40;;;0.90;;
48534;SDS011;34323;52.022;5.686;2023-04-19T10:00:46;2.22;;;1.20;;
48534;SDS011;34323;52.022;5.686;2023-04-19T10:03:18;2.22;;;1.20;;
48534;SDS011;34323;52.022;5.686;2023-04-19T10:05:46;2.40;;;1.48;;
48534;SDS011;34323;52.022;5.686;2023-04-19T10:08:12;2.67;;;1.40;;
48534;SDS011;34323;52.022;5.686;2023-04-19T10:10:39;2.72;;;1.55;;
48534;SDS011;34323;52.022;5.686;2023-04-19T10:13:06;1.83;;;1.20;;
48534;SDS011;34323;52.022;5.686;2023-04-19T10:15:36;2.00;;;1.20;;
48534;SDS011;34323;52.022;5.686;2023-04-19T10:18:03;2.92;;;1.85;;
48534;SDS011;34323;52.022;5.686;2023-04-19T10:23:14;3.55;;;1.15;;
48534;SDS011;34323;52.022;5.686;2023-04-19T10:25:44;3.22;;;1.45;;
48534;SDS011;34323;52.022;5.686;2023-04-19T10:28:11;3.83;;;1.20;;
48534;SDS011;34323;52.022;5.686;2023-04-19T10:30:36;3.22;;;1.52;;
48534;SDS011;34323;52.022;5.686;2023-04-19T10:33:25;1.42;;;1.13;;
48534;SDS011;34323;52.022;5.686;2023-04-19T10:35:54;3.63;;;1.30;;
48534;SDS011;34323;52.022;5.686;2023-04-19T10:38:34;2.28;;;1.38;;
48534;SDS011;34323;52.022;5.686;2023-04-19T10:41:01;4.88;;;1.05;;
48534;SDS011;34323;52.022;5.686;2023-04-19T10:43:34;1.80;;;1.38;;
48534;SDS011;34323;52.022;5.686;2023-04-19T10:46:02;6.22;;;1.35;;
48534;SDS011;34323;52.022;5.686;2023-04-19T10:48:38;4.35;;;1.60;;
48534;SDS011;34323;52.022;5.686;2023-04-19T10:51:11;3.47;;;1.25;;
48534;SDS011;34323;52.022;5.686;2023-04-19T10:56:18;3.13;;;1.38;;
48534;SDS011;34323;52.022;5.686;2023-04-19T11:12:00;1.73;;;1.17;;
48534;SDS011;34323;52.022;5.686;2023-04-19T11:14:32;5.35;;;1.40;;
48534;SDS011;34323;52.022;5.686;2023-04-19T11:17:01;3.72;;;1.40;;
48534;SDS011;34323;52.022;5.686;2023-04-19T11:19:37;2.92;;;1.70;;
48534;SDS011;34323;52.022;5.686;2023-04-19T11:22:03;2.08;;;1.75;;
48534;SDS011;34323;52.022;5.686;2023-04-19T11:24:28;3.13;;;1.77;;
48534;SDS011;34323;52.022;5.686;2023-04-19T11:26:54;3.90;;;1.42;;
48534;SDS011;34323;52.022;5.686;2023-04-19T11:29:21;2.35;;;1.52;;
48534;SDS011;34323;52.022;5.686;2023-04-19T11:31:46;4.05;;;1.80;;
48534;SDS011;34323;52.022;5.686;2023-04-19T11:34:12;2.50;;;1.60;;
48534;SDS011;34323;52.022;5.686;2023-04-19T11:36:47;2.97;;;1.75;;
48534;SDS011;34323;52.022;5.686;2023-04-19T11:39:14;2.22;;;1.40;;
48534;SDS011;34323;52.022;5.686;2023-04-19T11:41:40;6.20;;;1.90;;
48534;SDS011;34323;52.022;5.686;2023-04-19T11:44:27;2.25;;;1.75;;
48534;SDS011;34323;52.022;5.686;2023-04-19T11:46:58;3.42;;;1.77;;
48534;SDS011;34323;52.022;5.686;2023-04-19T11:49:26;2.08;;;1.70;;
48534;SDS011;34323;52.022;5.686;2023-04-19T11:51:56;2.80;;;1.88;;
48534;SDS011;34323;52.022;5.686;2023-04-19T11:54:25;5.00;;;1.60;;
48534;SDS011;34323;52.022;5.686;2023-04-19T11:57:04;2.90;;;1.95;;
48534;SDS011;34323;52.022;5.686;2023-04-19T11:59:31;2.45;;;1.60;;
48534;SDS011;34323;52.022;5.686;2023-04-19T12:02:08;5.18;;;1.85;;
48534;SDS011;34323;52.022;5.686;2023-04-19T12:04:35;6.20;;;1.60;;
48534;SDS011;34323;52.022;5.686;2023-04-19T12:07:01;2.55;;;1.80;;
48534;SDS011;34323;52.022;5.686;2023-04-19T12:09:28;3.67;;;1.73;;
48534;SDS011;34323;52.022;5.686;2023-04-19T12:11:54;2.42;;;1.65;;
48534;SDS011;34323;52.022;5.686;2023-04-19T12:14:21;2.20;;;1.40;;
48534;SDS011;34323;52.022;5.686;2023-04-19T12:19:36;4.68;;;1.77;;
48534;SDS011;34323;52.022;5.686;2023-04-19T12:22:10;3.97;;;1.70;;
48534;SDS011;34323;52.022;5.686;2023-04-19T12:24:37;2.13;;;1.40;;
48534;SDS011;34323;52.022;5.686;2023-04-19T12:27:04;2.42;;;1.70;;
48534;SDS011;34323;52.022;5.686;2023-04-19T12:29:30;3.70;;;1.80;;
48534;SDS011;34323;52.022;5.686;2023-04-19T12:31:56;4.88;;;1.80;;
48534;SDS011;34323;52.022;5.686;2023-04-19T12:34:22;2.67;;;1.50;;
48534;SDS011;34323;52.022;5.686;2023-04-19T12:36:47;5.05;;;2.03;;
48534;SDS011;34323;52.022;5.686;2023-04-19T12:39:13;5.15;;;2.00;;
48534;SDS011;34323;52.022;5.686;2023-04-19T12:41:38;5.32;;;2.08;;
48534;SDS011;34323;52.022;5.686;2023-04-19T12:44:04;9.35;;;2.25;;
48534;SDS011;34323;52.022;5.686;2023-04-19T12:46:29;3.28;;;1.85;;
48534;SDS011;34323;52.022;5.686;2023-04-19T12:48:55;6.72;;;2.30;;
48534;SDS011;34323;52.022;5.686;2023-04-19T12:51:21;2.58;;;1.60;;
48534;SDS011;34323;52.022;5.686;2023-04-19T12:53:49;4.18;;;2.13;;
48534;SDS011;34323;52.022;5.686;2023-04-19T12:56:16;6.22;;;2.22;;
48534;SDS011;34323;52.022;5.686;2023-04-19T12:58:42;2.92;;;1.83;;
48534;SDS011;34323;52.022;5.686;2023-04-19T13:01:08;3.53;;;1.90;;
48534;SDS011;34323;52.022;5.686;2023-04-19T13:03:33;3.75;;;2.08;;
48534;SDS011;34323;52.022;5.686;2023-04-19T13:06:00;5.28;;;1.90;;
48534;SDS011;34323;52.022;5.686;2023-04-19T13:08:26;11.82;;;2.38;;
48534;SDS011;34323;52.022;5.686;2023-04-19T13:10:52;2.58;;;1.70;;
48534;SDS011;34323;52.022;5.686;2023-04-19T13:13:17;6.22;;;2.22;;
48534;SDS011;34323;52.022;5.686;2023-04-19T13:15:43;4.40;;;2.08;;
48534;SDS011;34323;52.022;5.686;2023-04-19T13:18:09;6.70;;;2.08;;
48534;SDS011;34323;52.022;5.686;2023-04-19T13:20:35;7.38;;;2.25;;
48534;SDS011;34323;52.022;5.686;2023-04-19T13:23:00;7.80;;;2.20;;
48534;SDS011;34323;52.022;5.686;2023-04-19T13:25:26;3.33;;;2.03;;
48534;SDS011;34323;52.022;5.686;2023-04-19T13:27:51;3.15;;;1.63;;
48534;SDS011;34323;52.022;5.686;2023-04-19T13:30:17;4.03;;;1.90;;
48534;SDS011;34323;52.022;5.686;2023-04-19T13:32:43;5.18;;;2.13;;
48534;SDS011;34323;52.022;5.686;2023-04-19T13:35:08;3.65;;;1.90;;
48534;SDS011;34323;52.022;5.686;2023-04-19T13:37:34;5.70;;;2.28;;
48534;SDS011;34323;52.022;5.686;2023-04-19T13:39:59;3.85;;;1.98;;
48534;SDS011;34323;52.022;5.686;2023-04-19T13:42:26;2.97;;;1.83;;
48534;SDS011;34323;52.022;5.686;2023-04-19T13:44:52;2.17;;;1.42;;
48534;SDS011;34323;52.022;5.686;2023-04-19T13:47:18;7.80;;;1.92;;
48534;SDS011;34323;52.022;5.686;2023-04-19T13:49:43;4.18;;;1.40;;
48534;SDS011;34323;52.022;5.686;2023-04-19T13:52:09;3.78;;;1.70;;
48534;SDS011;34323;52.022;5.686;2023-04-19T13:54:35;5.28;;;1.38;;
48534;SDS011;34323;52.022;5.686;2023-04-19T13:57:00;2.80;;;1.90;;
48534;SDS011;34323;52.022;5.686;2023-04-19T13:59:26;2.53;;;1.55;;
48534;SDS011;34323;52.022;5.686;2023-04-19T14:01:54;2.03;;;1.60;;
48534;SDS011;34323;52.022;5.686;2023-04-19T14:04:20;6.00;;;1.73;;
48534;SDS011;34323;52.022;5.686;2023-04-19T14:06:45;7.70;;;2.08;;
48534;SDS011;34323;52.022;5.686;2023-04-19T14:09:12;3.38;;;1.45;;
48534;SDS011;34323;52.022;5.686;2023-04-19T14:11:37;2.03;;;1.40;;
48534;SDS011;34323;52.022;5.686;2023-04-19T14:14:03;3.30;;;1.75;;
48534;SDS011;34323;52.022;5.686;2023-04-19T14:16:28;3.35;;;1.60;;
48534;SDS011;34323;52.022;5.686;2023-04-19T14:18:54;2.67;;;2.05;;
48534;SDS011;34323;52.022;5.686;2023-04-19T14:21:20;3.88;;;1.83;;
48534;SDS011;34323;52.022;5.686;2023-04-19T14:23:45;2.20;;;1.58;;
48534;SDS011;34323;52.022;5.686;2023-04-19T14:26:11;5.10;;;1.65;;
48534;SDS011;34323;52.022;5.686;2023-04-19T14:28:36;2.03;;;1.48;;
48534;SDS011;34323;52.022;5.686;2023-04-19T14:31:02;2.55;;;1.70;;
48534;SDS011;34323;52.022;5.686;2023-04-19T14:33:28;4.35;;;1.83;;
48534;SDS011;34323;52.022;5.686;2023-04-19T14:35:53;2.22;;;1.58;;
48534;SDS011;34323;52.022;5.686;2023-04-19T14:38:19;3.10;;;1.50;;
48534;SDS011;34323;52.022;5.686;2023-04-19T14:40:45;3.20;;;1.92;;
48534;SDS011;34323;52.022;5.686;2023-04-19T14:43:10;5.22;;;1.75;;
48534;SDS011;34323;52.022;5.686;2023-04-19T14:45:39;3.03;;;2.08;;
48534;SDS011;34323;52.022;5.686;2023-04-19T14:48:05;4.25;;;2.05;;
48534;SDS011;34323;52.022;5.686;2023-04-19T14:50:30;2.80;;;1.70;;
48534;SDS011;34323;52.022;5.686;2023-04-19T14:52:56;4.03;;;2.10;;
48534;SDS011;34323;52.022;5.686;2023-04-19T14:55:21;3.13;;;1.92;;
48534;SDS011;34323;52.022;5.686;2023-04-19T14:57:48;3.45;;;2.30;;
48534;SDS011;34323;52.022;5.686;2023-04-19T15:00:14;4.20;;;2.30;;